X  Sluiten METAR luchtvaart weer gegevens      EBBR Brussels Airport
Temperatuur
11°C Temperatuur
9°C Dauwpunt
88% Vochtigheid



Wind
13 KM/U
8 MPH
4 M/S
7 KTS



340°
NNW
Huidig weer

Area Buien Area Buien
Luchtdruk 1027.92 (hPa) - 30.35 (inHg)
Zicht 6.2 (mijl) - 10 (km)
Vliegveld
Vliegveld code EBBR

Locatie : Brussels Airport
Afstand: 14 (km)

Metar:
EBBR 251750Z 34007KT 9999 VCSH FEW020 SCT038TCU 11/09 Q1028 TEMPO 4000 SHRA

Tijd: 2021-02-25 18:50 CET